sensor_id;sensor_type;location;lat;lon;timestamp;P1;durP1;ratioP1;P2;durP2;ratioP2
21480;SDS011;10902;48.158;8.634;2023-04-03T00:00:59;10.52;;;7.70;;
21480;SDS011;10902;48.158;8.634;2023-04-03T00:03:25;12.82;;;7.82;;
21480;SDS011;10902;48.158;8.634;2023-04-03T00:05:51;10.68;;;7.57;;
21480;SDS011;10902;48.158;8.634;2023-04-03T00:08:17;11.50;;;8.23;;
21480;SDS011;10902;48.158;8.634;2023-04-03T00:10:42;10.63;;;7.50;;
21480;SDS011;10902;48.158;8.634;2023-04-03T00:13:08;11.13;;;7.78;;
21480;SDS011;10902;48.158;8.634;2023-04-03T00:15:35;10.95;;;7.93;;
21480;SDS011;10902;48.158;8.634;2023-04-03T00:18:01;11.23;;;7.85;;
21480;SDS011;10902;48.158;8.634;2023-04-03T00:20:27;11.75;;;7.95;;
21480;SDS011;10902;48.158;8.634;2023-04-03T00:22:53;14.65;;;9.27;;
21480;SDS011;10902;48.158;8.634;2023-04-03T00:25:19;11.77;;;8.57;;
21480;SDS011;10902;48.158;8.634;2023-04-03T00:27:45;11.88;;;8.27;;
21480;SDS011;10902;48.158;8.634;2023-04-03T00:30:13;12.80;;;8.27;;
21480;SDS011;10902;48.158;8.634;2023-04-03T00:32:40;13.40;;;8.48;;
21480;SDS011;10902;48.158;8.634;2023-04-03T00:35:06;12.82;;;9.68;;
21480;SDS011;10902;48.158;8.634;2023-04-03T00:37:32;14.38;;;9.35;;
21480;SDS011;10902;48.158;8.634;2023-04-03T00:39:58;12.80;;;9.07;;
21480;SDS011;10902;48.158;8.634;2023-04-03T00:42:25;15.10;;;9.13;;
21480;SDS011;10902;48.158;8.634;2023-04-03T00:47:22;18.25;;;11.82;;
21480;SDS011;10902;48.158;8.634;2023-04-03T00:49:49;11.52;;;8.05;;
21480;SDS011;10902;48.158;8.634;2023-04-03T00:52:16;11.63;;;8.32;;
21480;SDS011;10902;48.158;8.634;2023-04-03T00:54:45;13.65;;;9.18;;
21480;SDS011;10902;48.158;8.634;2023-04-03T00:57:13;11.35;;;8.93;;
21480;SDS011;10902;48.158;8.634;2023-04-03T00:59:42;13.70;;;9.77;;
21480;SDS011;10902;48.158;8.634;2023-04-03T01:02:15;14.35;;;9.70;;
21480;SDS011;10902;48.158;8.634;2023-04-03T01:04:43;14.23;;;10.60;;
21480;SDS011;10902;48.158;8.634;2023-04-03T01:07:13;13.77;;;9.75;;
21480;SDS011;10902;48.158;8.634;2023-04-03T01:09:47;16.50;;;11.30;;
21480;SDS011;10902;48.158;8.634;2023-04-03T01:14:42;15.25;;;11.18;;
21480;SDS011;10902;48.158;8.634;2023-04-03T01:17:28;15.85;;;10.38;;
21480;SDS011;10902;48.158;8.634;2023-04-03T01:23:06;16.33;;;10.43;;
21480;SDS011;10902;48.158;8.634;2023-04-03T01:28:11;15.40;;;10.35;;
21480;SDS011;10902;48.158;8.634;2023-04-03T01:31:20;13.55;;;10.18;;
21480;SDS011;10902;48.158;8.634;2023-04-03T01:34:00;14.77;;;11.00;;
21480;SDS011;10902;48.158;8.634;2023-04-03T01:36:28;16.23;;;11.55;;
21480;SDS011;10902;48.158;8.634;2023-04-03T01:38:56;16.00;;;11.07;;
21480;SDS011;10902;48.158;8.634;2023-04-03T01:41:23;17.45;;;11.40;;
21480;SDS011;10902;48.158;8.634;2023-04-03T01:43:48;17.13;;;10.98;;
21480;SDS011;10902;48.158;8.634;2023-04-03T01:46:15;15.30;;;10.55;;
21480;SDS011;10902;48.158;8.634;2023-04-03T01:48:41;16.48;;;10.70;;
21480;SDS011;10902;48.158;8.634;2023-04-03T01:51:07;15.93;;;9.90;;
21480;SDS011;10902;48.158;8.634;2023-04-03T01:53:33;13.73;;;10.02;;
21480;SDS011;10902;48.158;8.634;2023-04-03T01:55:59;14.70;;;10.55;;
21480;SDS011;10902;48.158;8.634;2023-04-03T01:58:24;16.58;;;11.25;;
21480;SDS011;10902;48.158;8.634;2023-04-03T02:00:51;14.68;;;11.63;;
21480;SDS011;10902;48.158;8.634;2023-04-03T02:03:17;12.77;;;9.45;;
21480;SDS011;10902;48.158;8.634;2023-04-03T02:05:43;16.42;;;10.18;;
21480;SDS011;10902;48.158;8.634;2023-04-03T02:08:09;15.23;;;10.15;;
21480;SDS011;10902;48.158;8.634;2023-04-03T02:10:35;15.13;;;10.27;;
21480;SDS011;10902;48.158;8.634;2023-04-03T02:13:01;13.95;;;10.48;;
21480;SDS011;10902;48.158;8.634;2023-04-03T02:15:26;17.27;;;10.93;;
21480;SDS011;10902;48.158;8.634;2023-04-03T02:17:52;14.38;;;10.98;;
21480;SDS011;10902;48.158;8.634;2023-04-03T02:20:18;15.35;;;10.52;;
21480;SDS011;10902;48.158;8.634;2023-04-03T02:22:43;16.65;;;11.63;;
21480;SDS011;10902;48.158;8.634;2023-04-03T02:25:09;14.15;;;10.38;;
21480;SDS011;10902;48.158;8.634;2023-04-03T02:27:35;15.82;;;11.05;;
21480;SDS011;10902;48.158;8.634;2023-04-03T02:30:02;14.10;;;10.45;;
21480;SDS011;10902;48.158;8.634;2023-04-03T02:32:28;13.68;;;9.90;;
21480;SDS011;10902;48.158;8.634;2023-04-03T02:34:53;15.32;;;10.35;;
21480;SDS011;10902;48.158;8.634;2023-04-03T02:37:19;16.08;;;10.35;;
21480;SDS011;10902;48.158;8.634;2023-04-03T02:39:45;16.63;;;11.05;;
21480;SDS011;10902;48.158;8.634;2023-04-03T02:42:11;17.05;;;10.45;;
21480;SDS011;10902;48.158;8.634;2023-04-03T02:44:36;15.73;;;10.98;;
21480;SDS011;10902;48.158;8.634;2023-04-03T02:47:02;16.40;;;11.10;;
21480;SDS011;10902;48.158;8.634;2023-04-03T02:49:28;15.73;;;11.60;;
21480;SDS011;10902;48.158;8.634;2023-04-03T02:51:53;15.68;;;10.40;;
21480;SDS011;10902;48.158;8.634;2023-04-03T02:54:19;16.73;;;10.93;;
21480;SDS011;10902;48.158;8.634;2023-04-03T02:56:44;16.55;;;11.13;;
21480;SDS011;10902;48.158;8.634;2023-04-03T02:59:10;15.65;;;10.98;;
21480;SDS011;10902;48.158;8.634;2023-04-03T03:01:36;15.98;;;11.80;;
21480;SDS011;10902;48.158;8.634;2023-04-03T03:04:01;15.60;;;11.10;;
21480;SDS011;10902;48.158;8.634;2023-04-03T03:06:27;15.95;;;10.63;;
21480;SDS011;10902;48.158;8.634;2023-04-03T03:08:53;16.00;;;10.95;;
21480;SDS011;10902;48.158;8.634;2023-04-03T03:11:18;15.93;;;10.68;;
21480;SDS011;10902;48.158;8.634;2023-04-03T03:13:44;15.30;;;11.13;;
21480;SDS011;10902;48.158;8.634;2023-04-03T03:16:10;16.00;;;11.07;;
21480;SDS011;10902;48.158;8.634;2023-04-03T03:18:35;16.65;;;11.18;;
21480;SDS011;10902;48.158;8.634;2023-04-03T03:21:02;14.40;;;10.52;;
21480;SDS011;10902;48.158;8.634;2023-04-03T03:23:28;16.25;;;11.30;;
21480;SDS011;10902;48.158;8.634;2023-04-03T03:25:56;15.68;;;11.00;;
21480;SDS011;10902;48.158;8.634;2023-04-03T03:28:23;18.02;;;10.80;;
21480;SDS011;10902;48.158;8.634;2023-04-03T03:30:49;14.90;;;9.88;;
21480;SDS011;10902;48.158;8.634;2023-04-03T03:33:15;17.25;;;10.77;;
21480;SDS011;10902;48.158;8.634;2023-04-03T03:35:42;15.75;;;10.48;;
21480;SDS011;10902;48.158;8.634;2023-04-03T03:38:08;15.57;;;11.23;;
21480;SDS011;10902;48.158;8.634;2023-04-03T03:40:33;18.05;;;11.50;;
21480;SDS011;10902;48.158;8.634;2023-04-03T03:42:59;14.15;;;10.98;;
21480;SDS011;10902;48.158;8.634;2023-04-03T03:45:25;16.02;;;11.38;;
21480;SDS011;10902;48.158;8.634;2023-04-03T03:47:50;14.60;;;10.65;;
21480;SDS011;10902;48.158;8.634;2023-04-03T03:50:16;16.90;;;11.15;;
21480;SDS011;10902;48.158;8.634;2023-04-03T03:52:41;16.45;;;11.07;;
21480;SDS011;10902;48.158;8.634;2023-04-03T03:55:07;16.35;;;11.30;;
21480;SDS011;10902;48.158;8.634;2023-04-03T03:57:33;14.98;;;10.65;;
21480;SDS011;10902;48.158;8.634;2023-04-03T03:59:58;16.77;;;11.18;;
21480;SDS011;10902;48.158;8.634;2023-04-03T04:02:24;14.75;;;10.38;;
21480;SDS011;10902;48.158;8.634;2023-04-03T04:04:50;17.55;;;10.82;;
21480;SDS011;10902;48.158;8.634;2023-04-03T04:07:15;16.08;;;11.43;;
21480;SDS011;10902;48.158;8.634;2023-04-03T04:09:41;17.52;;;10.85;;
21480;SDS011;10902;48.158;8.634;2023-04-03T04:12:07;16.27;;;11.27;;
21480;SDS011;10902;48.158;8.634;2023-04-03T04:14:32;15.25;;;10.70;;
21480;SDS011;10902;48.158;8.634;2023-04-03T04:16:58;16.95;;;11.45;;
21480;SDS011;10902;48.158;8.634;2023-04-03T04:19:23;13.98;;;10.52;;
21480;SDS011;10902;48.158;8.634;2023-04-03T04:21:49;18.08;;;11.32;;
21480;SDS011;10902;48.158;8.634;2023-04-03T04:24:15;16.85;;;11.30;;
21480;SDS011;10902;48.158;8.634;2023-04-03T04:26:40;15.07;;;10.05;;
21480;SDS011;10902;48.158;8.634;2023-04-03T04:29:08;14.38;;;10.48;;
21480;SDS011;10902;48.158;8.634;2023-04-03T04:31:34;16.67;;;10.90;;
21480;SDS011;10902;48.158;8.634;2023-04-03T04:34:00;14.57;;;10.73;;
21480;SDS011;10902;48.158;8.634;2023-04-03T04:36:25;14.52;;;11.20;;
21480;SDS011;10902;48.158;8.634;2023-04-03T04:38:51;18.70;;;11.25;;
21480;SDS011;10902;48.158;8.634;2023-04-03T04:41:19;17.63;;;11.02;;
21480;SDS011;10902;48.158;8.634;2023-04-03T04:43:47;18.10;;;12.23;;
21480;SDS011;10902;48.158;8.634;2023-04-03T04:46:13;15.40;;;10.88;;
21480;SDS011;10902;48.158;8.634;2023-04-03T04:48:39;18.90;;;13.15;;
21480;SDS011;10902;48.158;8.634;2023-04-03T04:51:05;16.63;;;11.10;;
21480;SDS011;10902;48.158;8.634;2023-04-03T04:53:31;15.68;;;11.02;;
21480;SDS011;10902;48.158;8.634;2023-04-03T04:55:56;16.52;;;11.68;;
21480;SDS011;10902;48.158;8.634;2023-04-03T04:58:22;15.48;;;12.05;;
21480;SDS011;10902;48.158;8.634;2023-04-03T05:00:47;16.75;;;11.93;;
21480;SDS011;10902;48.158;8.634;2023-04-03T05:03:13;14.48;;;11.02;;
21480;SDS011;10902;48.158;8.634;2023-04-03T05:05:38;15.57;;;10.80;;
21480;SDS011;10902;48.158;8.634;2023-04-03T05:08:04;15.48;;;11.05;;
21480;SDS011;10902;48.158;8.634;2023-04-03T05:10:30;14.13;;;10.30;;
21480;SDS011;10902;48.158;8.634;2023-04-03T05:12:56;15.63;;;10.57;;
21480;SDS011;10902;48.158;8.634;2023-04-03T05:15:22;14.65;;;11.63;;
21480;SDS011;10902;48.158;8.634;2023-04-03T05:17:48;16.25;;;10.43;;
21480;SDS011;10902;48.158;8.634;2023-04-03T05:20:13;17.63;;;11.35;;
21480;SDS011;10902;48.158;8.634;2023-04-03T05:22:39;13.40;;;10.15;;
21480;SDS011;10902;48.158;8.634;2023-04-03T05:25:05;15.32;;;9.75;;
21480;SDS011;10902;48.158;8.634;2023-04-03T05:27:31;14.07;;;10.00;;
21480;SDS011;10902;48.158;8.634;2023-04-03T05:29:57;13.45;;;9.80;;
21480;SDS011;10902;48.158;8.634;2023-04-03T05:32:23;13.07;;;8.95;;
21480;SDS011;10902;48.158;8.634;2023-04-03T05:34:49;14.85;;;8.93;;
21480;SDS011;10902;48.158;8.634;2023-04-03T05:37:15;11.55;;;8.45;;
21480;SDS011;10902;48.158;8.634;2023-04-03T05:39:41;14.52;;;10.10;;
21480;SDS011;10902;48.158;8.634;2023-04-03T05:42:07;12.55;;;8.43;;
21480;SDS011;10902;48.158;8.634;2023-04-03T05:44:32;13.55;;;8.85;;
21480;SDS011;10902;48.158;8.634;2023-04-03T05:46:58;10.88;;;7.90;;
21480;SDS011;10902;48.158;8.634;2023-04-03T05:49:24;12.02;;;8.15;;
21480;SDS011;10902;48.158;8.634;2023-04-03T05:51:50;9.38;;;7.05;;
21480;SDS011;10902;48.158;8.634;2023-04-03T05:54:20;11.63;;;8.68;;
21480;SDS011;10902;48.158;8.634;2023-04-03T05:56:49;13.27;;;8.73;;
21480;SDS011;10902;48.158;8.634;2023-04-03T05:59:15;10.57;;;8.05;;
21480;SDS011;10902;48.158;8.634;2023-04-03T06:01:41;11.35;;;8.05;;
21480;SDS011;10902;48.158;8.634;2023-04-03T06:04:07;12.43;;;9.02;;
21480;SDS011;10902;48.158;8.634;2023-04-03T06:06:50;10.63;;;7.93;;
21480;SDS011;10902;48.158;8.634;2023-04-03T06:09:23;10.95;;;7.93;;
21480;SDS011;10902;48.158;8.634;2023-04-03T06:11:50;11.98;;;7.55;;
21480;SDS011;10902;48.158;8.634;2023-04-03T06:14:16;9.90;;;7.07;;
21480;SDS011;10902;48.158;8.634;2023-04-03T06:16:41;8.90;;;6.50;;
21480;SDS011;10902;48.158;8.634;2023-04-03T06:19:08;8.88;;;6.05;;
21480;SDS011;10902;48.158;8.634;2023-04-03T06:21:35;8.60;;;6.65;;
21480;SDS011;10902;48.158;8.634;2023-04-03T06:24:01;9.13;;;6.95;;
21480;SDS011;10902;48.158;8.634;2023-04-03T06:26:30;10.10;;;6.88;;
21480;SDS011;10902;48.158;8.634;2023-04-03T06:28:56;11.82;;;7.63;;
21480;SDS011;10902;48.158;8.634;2023-04-03T06:31:22;9.90;;;6.72;;
21480;SDS011;10902;48.158;8.634;2023-04-03T06:33:48;10.02;;;6.43;;
21480;SDS011;10902;48.158;8.634;2023-04-03T06:36:13;9.95;;;7.18;;
21480;SDS011;10902;48.158;8.634;2023-04-03T06:38:39;10.20;;;6.90;;
21480;SDS011;10902;48.158;8.634;2023-04-03T06:41:05;10.73;;;7.30;;
21480;SDS011;10902;48.158;8.634;2023-04-03T06:43:31;10.95;;;6.82;;
21480;SDS011;10902;48.158;8.634;2023-04-03T06:45:57;10.23;;;7.43;;
21480;SDS011;10902;48.158;8.634;2023-04-03T06:48:22;11.48;;;8.90;;
21480;SDS011;10902;48.158;8.634;2023-04-03T06:50:48;16.40;;;11.18;;
21480;SDS011;10902;48.158;8.634;2023-04-03T06:53:14;9.75;;;7.38;;
21480;SDS011;10902;48.158;8.634;2023-04-03T06:55:39;10.20;;;6.68;;
21480;SDS011;10902;48.158;8.634;2023-04-03T06:58:06;8.68;;;6.18;;
21480;SDS011;10902;48.158;8.634;2023-04-03T07:00:32;7.25;;;5.28;;
21480;SDS011;10902;48.158;8.634;2023-04-03T07:02:58;7.85;;;5.72;;
21480;SDS011;10902;48.158;8.634;2023-04-03T07:05:24;9.07;;;6.05;;
21480;SDS011;10902;48.158;8.634;2023-04-03T07:07:51;9.23;;;6.25;;
21480;SDS011;10902;48.158;8.634;2023-04-03T07:10:16;7.75;;;5.68;;
21480;SDS011;10902;48.158;8.634;2023-04-03T07:12:42;7.18;;;5.03;;
21480;SDS011;10902;48.158;8.634;2023-04-03T07:15:08;7.32;;;5.07;;
21480;SDS011;10902;48.158;8.634;2023-04-03T07:17:34;8.00;;;5.35;;
21480;SDS011;10902;48.158;8.634;2023-04-03T07:20:01;6.38;;;4.47;;
21480;SDS011;10902;48.158;8.634;2023-04-03T07:22:26;7.07;;;4.95;;
21480;SDS011;10902;48.158;8.634;2023-04-03T07:24:53;6.18;;;4.38;;
21480;SDS011;10902;48.158;8.634;2023-04-03T07:27:18;6.65;;;4.72;;
21480;SDS011;10902;48.158;8.634;2023-04-03T07:29:44;6.38;;;4.70;;
21480;SDS011;10902;48.158;8.634;2023-04-03T07:32:10;5.40;;;3.50;;
21480;SDS011;10902;48.158;8.634;2023-04-03T07:34:36;5.20;;;3.80;;
21480;SDS011;10902;48.158;8.634;2023-04-03T07:37:02;6.03;;;4.18;;
21480;SDS011;10902;48.158;8.634;2023-04-03T07:39:29;7.65;;;4.50;;
21480;SDS011;10902;48.158;8.634;2023-04-03T07:41:55;5.75;;;3.95;;
21480;SDS011;10902;48.158;8.634;2023-04-03T07:44:21;6.18;;;3.80;;
21480;SDS011;10902;48.158;8.634;2023-04-03T07:46:46;6.47;;;3.80;;
21480;SDS011;10902;48.158;8.634;2023-04-03T07:49:13;5.80;;;3.42;;
21480;SDS011;10902;48.158;8.634;2023-04-03T07:51:39;5.45;;;3.75;;
21480;SDS011;10902;48.158;8.634;2023-04-03T07:54:05;5.60;;;3.78;;
21480;SDS011;10902;48.158;8.634;2023-04-03T07:56:31;6.15;;;2.95;;
21480;SDS011;10902;48.158;8.634;2023-04-03T07:58:57;5.95;;;3.90;;
21480;SDS011;10902;48.158;8.634;2023-04-03T08:01:22;6.25;;;3.30;;
21480;SDS011;10902;48.158;8.634;2023-04-03T08:03:48;5.03;;;2.90;;
21480;SDS011;10902;48.158;8.634;2023-04-03T08:06:13;4.97;;;2.72;;
21480;SDS011;10902;48.158;8.634;2023-04-03T08:08:40;4.10;;;2.53;;
21480;SDS011;10902;48.158;8.634;2023-04-03T08:11:06;6.40;;;3.67;;
21480;SDS011;10902;48.158;8.634;2023-04-03T08:13:33;4.93;;;3.22;;
21480;SDS011;10902;48.158;8.634;2023-04-03T08:16:10;7.07;;;2.40;;
21480;SDS011;10902;48.158;8.634;2023-04-03T08:18:37;4.57;;;2.22;;
21480;SDS011;10902;48.158;8.634;2023-04-03T08:21:10;4.65;;;2.55;;
21480;SDS011;10902;48.158;8.634;2023-04-03T08:23:37;4.45;;;2.70;;
21480;SDS011;10902;48.158;8.634;2023-04-03T08:26:07;4.75;;;2.50;;
21480;SDS011;10902;48.158;8.634;2023-04-03T08:28:38;6.25;;;2.70;;
21480;SDS011;10902;48.158;8.634;2023-04-03T08:31:05;4.93;;;2.58;;
21480;SDS011;10902;48.158;8.634;2023-04-03T08:33:35;5.40;;;2.85;;
21480;SDS011;10902;48.158;8.634;2023-04-03T08:36:04;4.40;;;2.60;;
21480;SDS011;10902;48.158;8.634;2023-04-03T08:38:31;4.82;;;2.65;;
21480;SDS011;10902;48.158;8.634;2023-04-03T08:41:01;6.65;;;3.45;;
21480;SDS011;10902;48.158;8.634;2023-04-03T08:43:40;5.57;;;2.63;;
21480;SDS011;10902;48.158;8.634;2023-04-03T08:49:33;4.43;;;2.25;;
21480;SDS011;10902;48.158;8.634;2023-04-03T08:52:12;6.15;;;2.78;;
21480;SDS011;10902;48.158;8.634;2023-04-03T08:57:15;4.45;;;2.40;;
21480;SDS011;10902;48.158;8.634;2023-04-03T08:59:43;4.80;;;2.55;;
21480;SDS011;10902;48.158;8.634;2023-04-03T09:02:31;4.53;;;2.55;;
21480;SDS011;10902;48.158;8.634;2023-04-03T09:05:01;4.43;;;2.50;;
21480;SDS011;10902;48.158;8.634;2023-04-03T09:07:33;4.88;;;2.90;;
21480;SDS011;10902;48.158;8.634;2023-04-03T09:10:04;4.28;;;2.72;;
21480;SDS011;10902;48.158;8.634;2023-04-03T09:12:38;5.63;;;3.17;;
21480;SDS011;10902;48.158;8.634;2023-04-03T09:20:49;4.90;;;2.90;;
21480;SDS011;10902;48.158;8.634;2023-04-03T09:23:33;4.75;;;2.72;;
21480;SDS011;10902;48.158;8.634;2023-04-03T09:26:15;5.40;;;2.83;;
21480;SDS011;10902;48.158;8.634;2023-04-03T09:28:50;7.85;;;3.10;;
21480;SDS011;10902;48.158;8.634;2023-04-03T09:31:23;5.95;;;3.03;;
21480;SDS011;10902;48.158;8.634;2023-04-03T09:33:52;4.80;;;2.70;;
21480;SDS011;10902;48.158;8.634;2023-04-03T09:36:37;4.88;;;3.05;;
21480;SDS011;10902;48.158;8.634;2023-04-03T09:39:32;5.80;;;2.88;;
21480;SDS011;10902;48.158;8.634;2023-04-03T09:42:03;5.15;;;3.00;;
21480;SDS011;10902;48.158;8.634;2023-04-03T09:44:38;5.40;;;3.13;;
21480;SDS011;10902;48.158;8.634;2023-04-03T09:47:18;4.93;;;2.88;;
21480;SDS011;10902;48.158;8.634;2023-04-03T09:49:49;6.43;;;2.80;;
21480;SDS011;10902;48.158;8.634;2023-04-03T09:52:24;5.60;;;2.92;;
21480;SDS011;10902;48.158;8.634;2023-04-03T09:54:51;5.30;;;3.05;;
21480;SDS011;10902;48.158;8.634;2023-04-03T09:57:16;5.63;;;2.95;;
21480;SDS011;10902;48.158;8.634;2023-04-03T09:59:45;7.10;;;3.20;;
21480;SDS011;10902;48.158;8.634;2023-04-03T10:02:30;4.90;;;3.05;;
21480;SDS011;10902;48.158;8.634;2023-04-03T10:05:03;8.23;;;3.00;;
21480;SDS011;10902;48.158;8.634;2023-04-03T10:07:48;5.78;;;3.30;;
21480;SDS011;10902;48.158;8.634;2023-04-03T10:12:39;6.32;;;3.55;;
21480;SDS011;10902;48.158;8.634;2023-04-03T10:15:26;5.45;;;3.20;;
21480;SDS011;10902;48.158;8.634;2023-04-03T10:18:05;7.40;;;3.30;;
21480;SDS011;10902;48.158;8.634;2023-04-03T10:20:52;5.00;;;2.90;;
21480;SDS011;10902;48.158;8.634;2023-04-03T10:23:24;6.95;;;3.65;;
21480;SDS011;10902;48.158;8.634;2023-04-03T10:26:14;5.03;;;3.00;;
21480;SDS011;10902;48.158;8.634;2023-04-03T10:28:48;6.70;;;3.50;;
21480;SDS011;10902;48.158;8.634;2023-04-03T10:34:31;4.75;;;3.08;;
21480;SDS011;10902;48.158;8.634;2023-04-03T10:42:59;5.90;;;3.60;;
21480;SDS011;10902;48.158;8.634;2023-04-03T10:45:31;5.35;;;3.25;;
21480;SDS011;10902;48.158;8.634;2023-04-03T10:51:22;6.00;;;3.63;;
21480;SDS011;10902;48.158;8.634;2023-04-03T10:56:57;5.80;;;3.42;;
21480;SDS011;10902;48.158;8.634;2023-04-03T10:59:28;6.55;;;3.45;;
21480;SDS011;10902;48.158;8.634;2023-04-03T11:02:04;5.43;;;3.30;;
21480;SDS011;10902;48.158;8.634;2023-04-03T11:04:37;8.13;;;3.83;;
21480;SDS011;10902;48.158;8.634;2023-04-03T11:09:44;6.28;;;3.60;;
21480;SDS011;10902;48.158;8.634;2023-04-03T11:12:15;6.35;;;3.47;;
21480;SDS011;10902;48.158;8.634;2023-04-03T11:14:58;7.00;;;3.47;;
21480;SDS011;10902;48.158;8.634;2023-04-03T11:17:32;5.10;;;3.25;;
21480;SDS011;10902;48.158;8.634;2023-04-03T11:22:36;6.70;;;3.50;;
21480;SDS011;10902;48.158;8.634;2023-04-03T11:25:10;5.07;;;3.10;;
21480;SDS011;10902;48.158;8.634;2023-04-03T11:33:02;5.63;;;3.35;;
21480;SDS011;10902;48.158;8.634;2023-04-03T11:35:53;6.15;;;2.90;;
21480;SDS011;10902;48.158;8.634;2023-04-03T11:38:33;5.43;;;3.28;;
21480;SDS011;10902;48.158;8.634;2023-04-03T11:41:04;5.97;;;3.40;;
21480;SDS011;10902;48.158;8.634;2023-04-03T11:43:33;5.75;;;3.53;;
21480;SDS011;10902;48.158;8.634;2023-04-03T11:46:05;6.30;;;3.10;;
21480;SDS011;10902;48.158;8.634;2023-04-03T11:53:46;6.47;;;3.50;;
21480;SDS011;10902;48.158;8.634;2023-04-03T12:01:47;5.68;;;3.13;;
21480;SDS011;10902;48.158;8.634;2023-04-03T12:04:13;6.10;;;3.30;;
21480;SDS011;10902;48.158;8.634;2023-04-03T12:06:42;5.93;;;3.10;;
21480;SDS011;10902;48.158;8.634;2023-04-03T12:12:28;6.80;;;3.45;;
21480;SDS011;10902;48.158;8.634;2023-04-03T12:14:55;6.43;;;3.40;;
21480;SDS011;10902;48.158;8.634;2023-04-03T12:17:37;5.72;;;3.30;;
21480;SDS011;10902;48.158;8.634;2023-04-03T12:20:24;6.88;;;3.65;;
21480;SDS011;10902;48.158;8.634;2023-04-03T12:23:21;5.70;;;3.70;;
21480;SDS011;10902;48.158;8.634;2023-04-03T12:26:02;6.13;;;3.72;;
21480;SDS011;10902;48.158;8.634;2023-04-03T12:28:30;5.30;;;3.67;;
21480;SDS011;10902;48.158;8.634;2023-04-03T12:31:02;5.00;;;3.10;;
21480;SDS011;10902;48.158;8.634;2023-04-03T12:33:46;5.28;;;3.30;;
21480;SDS011;10902;48.158;8.634;2023-04-03T12:36:30;8.18;;;3.20;;
21480;SDS011;10902;48.158;8.634;2023-04-03T12:39:21;5.30;;;3.05;;
21480;SDS011;10902;48.158;8.634;2023-04-03T12:42:04;5.65;;;2.95;;
21480;SDS011;10902;48.158;8.634;2023-04-03T12:47:38;5.57;;;3.13;;
21480;SDS011;10902;48.158;8.634;2023-04-03T12:50:22;5.85;;;3.30;;
21480;SDS011;10902;48.158;8.634;2023-04-03T12:53:11;6.75;;;3.30;;
21480;SDS011;10902;48.158;8.634;2023-04-03T12:55:46;6.50;;;3.55;;
21480;SDS011;10902;48.158;8.634;2023-04-03T12:58:25;5.65;;;3.45;;
21480;SDS011;10902;48.158;8.634;2023-04-03T13:00:59;5.55;;;3.10;;
21480;SDS011;10902;48.158;8.634;2023-04-03T13:03:27;5.93;;;3.38;;
21480;SDS011;10902;48.158;8.634;2023-04-03T13:05:57;6.32;;;3.40;;
21480;SDS011;10902;48.158;8.634;2023-04-03T13:08:26;5.88;;;3.25;;
21480;SDS011;10902;48.158;8.634;2023-04-03T13:11:04;5.07;;;3.20;;
21480;SDS011;10902;48.158;8.634;2023-04-03T13:13:34;5.60;;;2.97;;
21480;SDS011;10902;48.158;8.634;2023-04-03T13:16:07;5.63;;;3.42;;
21480;SDS011;10902;48.158;8.634;2023-04-03T13:18:36;5.53;;;3.05;;
21480;SDS011;10902;48.158;8.634;2023-04-03T13:21:06;6.75;;;3.05;;
21480;SDS011;10902;48.158;8.634;2023-04-03T13:23:38;5.47;;;2.95;;
21480;SDS011;10902;48.158;8.634;2023-04-03T13:26:07;5.05;;;3.00;;
21480;SDS011;10902;48.158;8.634;2023-04-03T13:28:34;5.20;;;2.80;;
21480;SDS011;10902;48.158;8.634;2023-04-03T13:31:03;4.57;;;2.65;;
21480;SDS011;10902;48.158;8.634;2023-04-03T13:33:31;4.93;;;2.90;;
21480;SDS011;10902;48.158;8.634;2023-04-03T13:36:13;6.70;;;3.25;;
21480;SDS011;10902;48.158;8.634;2023-04-03T13:38:44;5.30;;;2.95;;
21480;SDS011;10902;48.158;8.634;2023-04-03T13:43:53;4.40;;;2.58;;
21480;SDS011;10902;48.158;8.634;2023-04-03T13:46:21;5.07;;;3.00;;
21480;SDS011;10902;48.158;8.634;2023-04-03T13:48:51;5.93;;;2.80;;
21480;SDS011;10902;48.158;8.634;2023-04-03T13:51:23;6.60;;;3.03;;
21480;SDS011;10902;48.158;8.634;2023-04-03T13:53:52;5.32;;;2.83;;
21480;SDS011;10902;48.158;8.634;2023-04-03T13:56:27;5.85;;;3.10;;
21480;SDS011;10902;48.158;8.634;2023-04-03T14:04:57;7.93;;;3.55;;
21480;SDS011;10902;48.158;8.634;2023-04-03T14:07:02;5.50;;;2.85;;
21480;SDS011;10902;48.158;8.634;2023-04-03T14:09:28;4.75;;;2.83;;
21480;SDS011;10902;48.158;8.634;2023-04-03T14:11:59;5.32;;;2.95;;
21480;SDS011;10902;48.158;8.634;2023-04-03T14:14:31;4.65;;;2.90;;
21480;SDS011;10902;48.158;8.634;2023-04-03T14:16:59;4.80;;;2.60;;
21480;SDS011;10902;48.158;8.634;2023-04-03T14:19:28;5.65;;;2.65;;
21480;SDS011;10902;48.158;8.634;2023-04-03T14:21:58;4.63;;;2.58;;
21480;SDS011;10902;48.158;8.634;2023-04-03T14:24:26;5.25;;;3.35;;
21480;SDS011;10902;48.158;8.634;2023-04-03T14:26:53;6.22;;;2.50;;
21480;SDS011;10902;48.158;8.634;2023-04-03T14:29:19;5.25;;;2.72;;
21480;SDS011;10902;48.158;8.634;2023-04-03T14:31:46;7.85;;;3.03;;
21480;SDS011;10902;48.158;8.634;2023-04-03T14:34:13;4.97;;;2.40;;
21480;SDS011;10902;48.158;8.634;2023-04-03T14:36:39;6.57;;;2.50;;
21480;SDS011;10902;48.158;8.634;2023-04-03T14:39:07;4.18;;;2.35;;
21480;SDS011;10902;48.158;8.634;2023-04-03T14:41:36;4.70;;;2.50;;
21480;SDS011;10902;48.158;8.634;2023-04-03T14:44:02;6.10;;;2.78;;
21480;SDS011;10902;48.158;8.634;2023-04-03T14:46:32;5.72;;;2.55;;
21480;SDS011;10902;48.158;8.634;2023-04-03T14:49:00;5.63;;;2.30;;
21480;SDS011;10902;48.158;8.634;2023-04-03T14:51:26;4.82;;;2.42;;
21480;SDS011;10902;48.158;8.634;2023-04-03T14:53:51;5.13;;;2.50;;
21480;SDS011;10902;48.158;8.634;2023-04-03T14:56:23;5.32;;;2.60;;
21480;SDS011;10902;48.158;8.634;2023-04-03T14:58:55;6.13;;;2.50;;
21480;SDS011;10902;48.158;8.634;2023-04-03T15:01:22;6.63;;;2.50;;
21480;SDS011;10902;48.158;8.634;2023-04-03T15:03:48;4.28;;;2.20;;
21480;SDS011;10902;48.158;8.634;2023-04-03T15:06:14;5.07;;;3.00;;
21480;SDS011;10902;48.158;8.634;2023-04-03T15:08:41;5.80;;;2.70;;
21480;SDS011;10902;48.158;8.634;2023-04-03T15:11:09;5.57;;;2.65;;
21480;SDS011;10902;48.158;8.634;2023-04-03T15:13:35;4.22;;;2.28;;
21480;SDS011;10902;48.158;8.634;2023-04-03T15:16:01;5.18;;;2.17;;
21480;SDS011;10902;48.158;8.634;2023-04-03T15:18:29;4.75;;;2.42;;
21480;SDS011;10902;48.158;8.634;2023-04-03T15:21:00;5.55;;;2.78;;
21480;SDS011;10902;48.158;8.634;2023-04-03T15:23:26;5.28;;;2.70;;
21480;SDS011;10902;48.158;8.634;2023-04-03T15:25:53;4.07;;;2.38;;
21480;SDS011;10902;48.158;8.634;2023-04-03T15:28:22;5.25;;;2.70;;
21480;SDS011;10902;48.158;8.634;2023-04-03T15:30:52;5.25;;;2.45;;
21480;SDS011;10902;48.158;8.634;2023-04-03T15:33:17;5.70;;;2.95;;
21480;SDS011;10902;48.158;8.634;2023-04-03T15:35:43;4.63;;;2.40;;
21480;SDS011;10902;48.158;8.634;2023-04-03T15:38:09;5.93;;;2.30;;
21480;SDS011;10902;48.158;8.634;2023-04-03T15:40:35;6.32;;;2.80;;
21480;SDS011;10902;48.158;8.634;2023-04-03T15:43:01;5.03;;;2.50;;
21480;SDS011;10902;48.158;8.634;2023-04-03T15:45:30;5.10;;;2.38;;
21480;SDS011;10902;48.158;8.634;2023-04-03T15:47:56;5.32;;;2.33;;
21480;SDS011;10902;48.158;8.634;2023-04-03T15:50:22;5.78;;;2.67;;
21480;SDS011;10902;48.158;8.634;2023-04-03T15:52:49;5.32;;;2.88;;
21480;SDS011;10902;48.158;8.634;2023-04-03T15:55:19;5.05;;;1.90;;
21480;SDS011;10902;48.158;8.634;2023-04-03T15:57:46;5.68;;;2.50;;
21480;SDS011;10902;48.158;8.634;2023-04-03T16:00:12;8.40;;;2.83;;
21480;SDS011;10902;48.158;8.634;2023-04-03T16:02:38;6.43;;;2.78;;
21480;SDS011;10902;48.158;8.634;2023-04-03T16:05:05;6.55;;;2.60;;